Home PIREPS Pireps

Flight BEL6338

  • Submitted By: Marc Claus
  • Departure Airport: Bruxelles National (EBBR)
  • Arrival Airport: Leopold Sedar Senghor International Airport (GOOY)
  • Aircraft: A330-301 (OO-SFN)
  • Flight Time: 06.08
  • Date Submitted: 14/01/2018
  • Status: Accepted
Flight Details
Gross Revenue:
(237 load / € 605.00 per unit
€ 143,385.00
Fuel Cost:
(14298 fuel used @ 5.1 / unit)
€ 72,919.80

Additional Log Information:

View Log

Aircraft Used in flight is PMDG 737-800NGX PMDG House Winglets
13:27 Brakes are On
13:30 Brakes are Released
13:35 You Took off @ 159 Knots and Flaps at Position 3
Departure Weather
EBBR 131220Z 12004KT 080V140 6000 FEW006 BKN022 04/02 Q1023 NOSIGrn
13:35 Landing Gear Up @ 166 Knots and 240 Feet
18:42 Paused
00:14 Unpaused
00:50 Below FL100 you need to turn on the landing lights
01:01 Landing Gear Down @ 189 Knots and 2370 Feet
01:04 You Landed @ 119 Knots and with -250 Vertical Speed
Arrival Weather
GOOY 132300Z 36008KT 8000 NSC 19/17 Q1014rn
01:06 Brakes are On
01:07 Brussels Bel-Track1.0.1.2

Route Map

Corporate About Us Our Team Vacancies Information Fleet Route Network Rules and Regulations Operations Flight Schedules Event Center Tours Partners IVAO Vatsim Acars dev FSCB

fb Users Online No pilots online!
0 Pilot(s) and 116 Guest(s) Online
CMS by phpVMS - Design by Crazycreatives.com - Copyright © 2018 - Brussels Airlines Virtual